Time;durP1;ratioP1;P1;durP2;ratioP2;P2;SDS_P1;SDS_P2;PMS_P1;PMS_P2;Temp;Humidity;BMP_temperature;BMP_pressure;BME280_temperature;BME280_humidity;BME280_pressure;Samples;Min_cycle;Max_cycle;Signal;HPM_P1;HPM_P2
2023/02/05 00:00:17;;;;;;;31.58;19.30;;;2.40;99.90;;;;;;5053844;28;20478;-64
2023/02/05 00:02:42;;;;;;;30.67;17.48;;;2.50;99.90;;;;;;5053908;28;20101;-64
2023/02/05 00:05:08;;;;;;;30.30;17.08;;;2.50;99.90;;;;;;5053596;28;20048;-64
2023/02/05 00:07:34;;;;;;;32.75;19.42;;;2.50;99.90;;;;;;5053786;28;20033;-64
2023/02/05 00:09:59;;;;;;;33.42;19.15;;;2.60;99.90;;;;;;5053517;28;20083;-64
2023/02/05 00:12:25;;;;;;;30.88;18.52;;;2.60;99.90;;;;;;5053789;28;20013;-64
2023/02/05 00:14:50;;;;;;;31.55;18.75;;;2.60;99.90;;;;;;5053421;28;20494;-64
2023/02/05 00:17:16;;;;;;;28.92;17.95;;;2.60;99.90;;;;;;5053530;28;20025;-64
2023/02/05 00:19:41;;;;;;;30.88;19.63;;;2.60;99.90;;;;;;5053536;28;20029;-64
2023/02/05 00:22:07;;;;;;;36.05;18.90;;;2.50;99.90;;;;;;5053344;28;20033;-64
2023/02/05 00:24:32;;;;;;;36.75;18.20;;;2.50;99.90;;;;;;5053134;28;20036;-64
2023/02/05 00:26:58;;;;;;;31.02;18.27;;;2.60;99.90;;;;;;5053518;28;20029;-64
2023/02/05 00:29:23;;;;;;;29.20;18.00;;;2.60;99.90;;;;;;5053249;28;20154;-64
2023/02/05 00:31:49;;;;;;;33.63;18.17;;;2.50;99.90;;;;;;5053351;28;20053;-64
2023/02/05 00:34:15;;;;;;;29.58;17.55;;;2.60;99.90;;;;;;5053355;28;20104;-64
2023/02/05 00:36:41;;;;;;;25.45;16.67;;;2.50;99.90;;;;;;5053144;28;20517;-64
2023/02/05 00:39:08;;;;;;;31.08;17.05;;;2.50;99.90;;;;;;5053129;28;20032;-64
2023/02/05 00:41:34;;;;;;;29.88;17.30;;;2.60;99.90;;;;;;5053362;28;20032;-64
2023/02/05 00:43:59;;;;;;;28.20;18.02;;;2.50;99.90;;;;;;5052169;28;20029;-64
2023/02/05 00:46:25;;;;;;;23.38;16.45;;;2.50;99.90;;;;;;5053121;28;20501;-64
2023/02/05 00:48:50;;;;;;;25.33;16.83;;;2.60;99.90;;;;;;5052884;28;20052;-64
2023/02/05 00:51:16;;;;;;;29.65;17.90;;;2.60;99.90;;;;;;5053169;28;20090;-64
2023/02/05 00:53:42;;;;;;;30.77;18.02;;;2.60;99.90;;;;;;5052958;28;20052;-64
2023/02/05 00:56:07;;;;;;;33.38;19.42;;;2.60;99.90;;;;;;5053162;28;20079;-64
2023/02/05 00:58:33;;;;;;;29.58;19.17;;;2.60;99.90;;;;;;5053214;28;20025;-64
2023/02/05 01:00:58;;;;;;;26.33;17.92;;;2.60;99.90;;;;;;5051765;28;20150;-64
2023/02/05 01:03:24;;;;;;;31.17;17.80;;;2.60;99.90;;;;;;5052903;28;20033;-64
2023/02/05 01:05:49;;;;;;;28.35;18.15;;;2.60;99.90;;;;;;5052932;28;20059;-64
2023/02/05 01:08:15;;;;;;;27.40;17.90;;;2.60;99.90;;;;;;5053062;28;20478;-64
2023/02/05 01:10:44;;;;;;;28.65;17.15;;;2.60;99.90;;;;;;5052778;28;20109;-64
2023/02/05 01:13:09;;;;;;;27.67;18.10;;;2.60;99.90;;;;;;5052191;28;20546;-64
2023/02/05 01:15:35;;;;;;;28.85;17.95;;;2.60;99.90;;;;;;5052798;28;20064;-64
2023/02/05 01:18:00;;;;;;;31.20;17.73;;;2.60;99.90;;;;;;5051697;28;20116;-64
2023/02/05 01:20:26;;;;;;;30.88;17.77;;;2.60;99.90;;;;;;5053010;28;20032;-64
2023/02/05 01:22:52;;;;;;;27.08;17.58;;;2.60;99.90;;;;;;5052816;28;20057;-64
2023/02/05 01:25:17;;;;;;;28.10;18.13;;;2.60;99.90;;;;;;5052834;28;20174;-64
2023/02/05 01:27:43;;;;;;;32.35;17.17;;;2.60;99.90;;;;;;5052681;28;20044;-64
2023/02/05 01:30:10;;;;;;;28.17;17.38;;;2.60;99.90;;;;;;5052583;28;20029;-64
2023/02/05 01:32:36;;;;;;;28.77;17.33;;;2.60;99.90;;;;;;5052658;28;20032;-64
2023/02/05 01:35:02;;;;;;;32.58;17.90;;;2.60;99.90;;;;;;5052652;28;20021;-64
2023/02/05 01:37:28;;;;;;;29.60;17.63;;;2.60;99.90;;;;;;5056155;28;20450;-64
2023/02/05 01:39:53;;;;;;;31.08;18.08;;;2.60;99.90;;;;;;5056481;28;20031;-64
2023/02/05 01:42:22;;;;;;;27.10;17.08;;;2.60;99.90;;;;;;5056407;28;20033;-64
2023/02/05 01:48:02;;;;;;;32.42;16.77;;;2.70;99.90;;;;;;5111103;27;20430;-64
2023/02/05 01:50:41;;;;;;;24.85;16.42;;;2.70;99.90;;;;;;5111125;28;20443;-64
2023/02/05 01:53:12;;;;;;;29.52;16.60;;;2.80;99.90;;;;;;5111057;28;20431;-64
2023/02/05 01:55:44;;;;;;;28.73;16.35;;;2.80;99.90;;;;;;5110978;28;20024;-64
2023/02/05 01:58:10;;;;;;;31.70;17.27;;;2.80;99.90;;;;;;5110968;28;20024;-64
2023/02/05 02:00:36;;;;;;;30.02;17.30;;;2.80;99.90;;;;;;5110858;28;20028;-64
2023/02/05 02:03:03;;;;;;;27.42;16.27;;;2.90;99.90;;;;;;5110584;28;20026;-64
2023/02/05 02:05:29;;;;;;;26.83;16.92;;;2.90;99.90;;;;;;5110663;28;20028;-64
2023/02/05 02:07:54;;;;;;;28.88;17.75;;;2.90;99.90;;;;;;5110618;28;20028;-64
2023/02/05 02:10:20;;;;;;;31.20;17.90;;;2.90;99.90;;;;;;5110760;28;20029;-64
2023/02/05 02:12:48;;;;;;;30.08;17.00;;;2.90;99.90;;;;;;5110824;28;20024;-64
2023/02/05 02:15:18;;;;;;;26.58;17.83;;;2.90;99.90;;;;;;5110727;28;20058;-64
2023/02/05 02:17:46;;;;;;;32.55;17.80;;;2.90;99.90;;;;;;5110520;28;20028;-64
2023/02/05 02:20:17;;;;;;;32.00;17.75;;;2.90;99.90;;;;;;5109338;28;20115;-64
2023/02/05 02:23:08;;;;;;;32.35;18.58;;;3.00;99.90;;;;;;5110427;28;20028;-64
2023/02/05 02:26:14;;;;;;;36.30;17.65;;;3.00;99.90;;;;;;5110226;28;20100;-64
2023/02/05 02:31:29;;;;;;;33.85;16.83;;;3.00;99.90;;;;;;5070608;28;20697;-64
2023/02/05 02:34:34;;;;;;;31.95;16.75;;;3.00;99.90;;;;;;5070593;28;20037;-64
2023/02/05 02:37:08;;;;;;;29.60;17.83;;;3.00;99.90;;;;;;5070300;28;20033;-64
2023/02/05 02:39:55;;;;;;;34.38;18.00;;;3.00;99.90;;;;;;5070650;28;20375;-64
2023/02/05 02:42:29;;;;;;;29.73;16.75;;;3.10;99.90;;;;;;5070449;28;20036;-64
2023/02/05 02:44:59;;;;;;;37.08;17.98;;;3.10;99.90;;;;;;5070349;28;20544;-64
2023/02/05 02:47:30;;;;;;;31.58;18.23;;;3.10;99.90;;;;;;5069314;28;20123;-64
2023/02/05 02:50:02;;;;;;;36.80;16.92;;;3.10;99.90;;;;;;5070361;28;20028;-64
2023/02/05 02:52:32;;;;;;;32.60;17.50;;;3.20;99.90;;;;;;5070173;28;20028;-64
2023/02/05 02:55:04;;;;;;;29.73;16.40;;;3.20;99.90;;;;;;5070155;28;20475;-64
2023/02/05 02:57:32;;;;;;;30.85;16.90;;;3.20;99.90;;;;;;5068931;28;20025;-64
2023/02/05 03:00:00;;;;;;;26.75;16.60;;;3.20;99.90;;;;;;5068930;28;20075;-64
2023/02/05 03:02:30;;;;;;;28.42;16.75;;;3.20;99.90;;;;;;5070147;28;20021;-64
2023/02/05 03:05:00;;;;;;;29.85;17.88;;;3.20;99.90;;;;;;5069974;28;20421;-64
2023/02/05 03:07:32;;;;;;;29.70;16.38;;;3.30;99.90;;;;;;5070093;28;20536;-64
2023/02/05 03:10:23;;;;;;;28.75;17.92;;;3.30;99.90;;;;;;5068869;28;20058;-64
2023/02/05 03:12:48;;;;;;;30.92;17.45;;;3.30;99.90;;;;;;5085477;28;20394;-64
2023/02/05 03:15:14;;;;;;;30.10;17.63;;;3.30;99.90;;;;;;5069869;28;20024;-64
2023/02/05 03:17:41;;;;;;;31.67;17.50;;;3.30;99.90;;;;;;5069637;28;20171;-64
2023/02/05 03:20:24;;;;;;;33.00;17.50;;;3.30;99.90;;;;;;5069471;28;20044;-64
2023/02/05 03:22:50;;;;;;;34.30;18.27;;;3.30;99.90;;;;;;5068232;28;20505;-64
2023/02/05 03:25:19;;;;;;;32.92;17.92;;;3.30;99.90;;;;;;5069608;28;20032;-64
2023/02/05 03:27:45;;;;;;;30.85;17.80;;;3.30;99.90;;;;;;5069387;28;20025;-64
2023/02/05 03:30:11;;;;;;;33.05;17.35;;;3.30;99.90;;;;;;5068997;28;20118;-64
2023/02/05 03:35:58;;;;;;;35.33;18.67;;;3.30;99.90;;;;;;5111141;27;20434;-64
2023/02/05 03:41:18;;;;;;;31.45;18.73;;;3.30;99.90;;;;;;5111124;27;20302;-64
2023/02/05 03:44:07;;;;;;;30.42;19.30;;;3.40;99.90;;;;;;5111227;28;20027;-64
2023/02/05 03:46:46;;;;;;;34.75;20.05;;;3.40;99.90;;;;;;5111066;28;20200;-64
2023/02/05 03:49:39;;;;;;;32.13;19.48;;;3.40;99.90;;;;;;5111230;28;20024;-64
2023/02/05 03:52:17;;;;;;;38.13;21.00;;;3.40;99.90;;;;;;5144160;27;20030;-64
2023/02/05 03:54:55;;;;;;;32.85;20.55;;;3.40;99.90;;;;;;5111033;28;20028;-64
2023/02/05 03:57:30;;;;;;;35.72;20.48;;;3.40;99.90;;;;;;5110906;28;20051;-64
2023/02/05 03:59:57;;;;;;;39.00;20.83;;;3.40;99.90;;;;;;5109807;28;20071;-64
2023/02/05 04:02:23;;;;;;;42.78;23.17;;;3.40;99.90;;;;;;5110834;28;20024;-64
2023/02/05 04:04:49;;;;;;;42.67;22.75;;;3.40;99.90;;;;;;5110696;28;20027;-64
2023/02/05 04:07:14;;;;;;;51.05;23.58;;;3.40;99.90;;;;;;5110634;28;20421;-64
2023/02/05 04:09:40;;;;;;;39.00;20.85;;;3.40;99.90;;;;;;5110612;28;20028;-64
2023/02/05 04:12:06;;;;;;;40.40;22.35;;;3.40;99.90;;;;;;5110564;28;20028;-64
2023/02/05 04:14:32;;;;;;;39.03;21.65;;;3.40;99.90;;;;;;5109515;28;20111;-64
2023/02/05 04:16:57;;;;;;;40.72;22.08;;;3.40;99.90;;;;;;5110607;28;20438;-64
2023/02/05 04:19:23;;;;;;;41.67;22.20;;;3.40;99.90;;;;;;5110277;28;20039;-64
2023/02/05 04:21:48;;;;;;;38.05;21.48;;;3.40;99.90;;;;;;5110502;28;20416;-64
2023/02/05 04:24:14;;;;;;;44.70;21.90;;;3.50;99.90;;;;;;5110266;28;20047;-64
2023/02/05 04:26:39;;;;;;;40.20;21.35;;;3.50;99.90;;;;;;5110297;28;20019;-64
2023/02/05 04:29:05;;;;;;;47.85;22.05;;;3.50;99.90;;;;;;5110346;28;20367;-64
2023/02/05 04:31:30;;;;;;;46.28;22.88;;;3.50;99.90;;;;;;5110240;28;20099;-64
2023/02/05 04:33:56;;;;;;;39.55;21.17;;;3.60;99.90;;;;;;5110191;28;20024;-65
2023/02/05 04:36:22;;;;;;;44.88;23.73;;;3.60;99.90;;;;;;5108947;28;20046;-64
2023/02/05 04:38:47;;;;;;;47.65;23.13;;;3.60;99.90;;;;;;5109895;28;20110;-64
2023/02/05 04:41:13;;;;;;;52.33;23.30;;;3.60;99.90;;;;;;5109970;28;20049;-64
2023/02/05 04:43:38;;;;;;;53.17;24.17;;;3.70;99.90;;;;;;5109947;28;20076;-64
2023/02/05 04:46:06;;;;;;;41.08;23.70;;;3.70;99.90;;;;;;5109850;28;20016;-64
2023/02/05 04:48:32;;;;;;;50.47;23.75;;;3.70;99.90;;;;;;5109914;28;20027;-64
2023/02/05 04:50:58;;;;;;;47.53;23.60;;;3.70;99.90;;;;;;5104264;28;20491;-64
2023/02/05 04:53:23;;;;;;;47.63;24.33;;;3.80;99.90;;;;;;5096111;28;20032;-64
2023/02/05 04:55:49;;;;;;;52.75;23.90;;;3.80;99.90;;;;;;5096303;28;20038;-64
2023/02/05 04:58:14;;;;;;;39.08;21.77;;;3.80;99.90;;;;;;5095889;28;20034;-64
2023/02/05 05:00:40;;;;;;;51.30;23.13;;;3.80;99.90;;;;;;5095982;28;20020;-64
2023/02/05 05:03:05;;;;;;;44.65;22.60;;;3.80;99.90;;;;;;5096010;28;20024;-64
2023/02/05 05:05:33;;;;;;;47.15;21.58;;;3.80;99.90;;;;;;5096021;28;20058;-64
2023/02/05 05:07:59;;;;;;;46.45;24.02;;;3.80;99.90;;;;;;5096174;28;20020;-64
2023/02/05 05:10:25;;;;;;;46.00;23.92;;;3.80;99.90;;;;;;5094717;28;20027;-64
2023/02/05 05:12:51;;;;;;;45.83;22.88;;;3.80;99.90;;;;;;5095947;28;20028;-64
2023/02/05 05:15:17;;;;;;;41.80;22.63;;;3.80;99.90;;;;;;5095700;28;20036;-64
2023/02/05 05:17:43;;;;;;;46.30;21.83;;;3.80;99.90;;;;;;5095989;28;20153;-64
2023/02/05 05:20:09;;;;;;;44.92;24.15;;;3.80;99.90;;;;;;5095599;28;20024;-64
2023/02/05 05:22:34;;;;;;;47.17;22.40;;;3.90;99.90;;;;;;5095642;28;20103;-64
2023/02/05 05:25:00;;;;;;;45.13;23.50;;;3.90;99.90;;;;;;5095588;28;20118;-64
2023/02/05 05:27:25;;;;;;;47.95;24.42;;;3.90;99.90;;;;;;5095763;28;20081;-64
2023/02/05 05:29:51;;;;;;;45.72;23.95;;;3.90;99.90;;;;;;5095587;28;20081;-64
2023/02/05 05:32:17;;;;;;;44.03;23.63;;;3.80;99.90;;;;;;5095620;28;20439;-64
2023/02/05 05:34:42;;;;;;;45.55;24.23;;;3.90;99.90;;;;;;5095363;28;20020;-64
2023/02/05 05:37:08;;;;;;;45.70;24.35;;;3.90;99.90;;;;;;5095361;28;20060;-64
2023/02/05 05:45:04;;;;;;;42.20;24.42;;;3.90;99.90;;;;;;5095050;28;20024;-65
2023/02/05 05:47:30;;;;;;;43.08;22.38;;;3.90;99.90;;;;;;5095159;28;20020;-65
2023/02/05 05:49:56;;;;;;;47.80;24.88;;;3.90;99.90;;;;;;5095182;28;20118;-65
2023/02/05 05:52:21;;;;;;;46.10;25.42;;;3.90;99.90;;;;;;5095342;28;20048;-65
2023/02/05 05:54:47;;;;;;;58.22;25.00;;;3.90;99.90;;;;;;5094828;28;20024;-65
2023/02/05 05:57:12;;;;;;;52.17;24.17;;;3.90;99.90;;;;;;5094942;28;20032;-65
2023/02/05 05:59:38;;;;;;;47.67;24.55;;;3.90;99.90;;;;;;5094849;28;20119;-65
2023/02/05 06:02:04;;;;;;;50.42;25.92;;;4.00;99.90;;;;;;5094599;28;20046;-65
2023/02/05 06:04:30;;;;;;;50.70;25.08;;;4.00;99.90;;;;;;5093227;28;20024;-65
2023/02/05 06:06:55;;;;;;;42.53;24.88;;;4.00;99.90;;;;;;5093696;28;20062;-65
2023/02/05 06:09:22;;;;;;;47.28;24.85;;;3.90;99.90;;;;;;5094811;28;20035;-65
2023/02/05 06:11:48;;;;;;;56.47;26.80;;;4.00;99.90;;;;;;5094831;28;20031;-65
2023/02/05 06:14:13;;;;;;;61.58;27.30;;;4.10;99.90;;;;;;5094796;28;20040;-65
2023/02/05 06:16:39;;;;;;;59.38;26.13;;;4.10;99.90;;;;;;5094587;28;20024;-65
2023/02/05 06:19:05;;;;;;;70.00;29.00;;;4.10;99.90;;;;;;5094484;28;20081;-65
2023/02/05 06:21:30;;;;;;;70.68;29.10;;;4.20;99.90;;;;;;5094614;28;20424;-65
2023/02/05 06:23:56;;;;;;;67.65;28.17;;;4.20;99.90;;;;;;5094467;28;20103;-65
2023/02/05 06:26:22;;;;;;;62.80;28.42;;;4.30;99.90;;;;;;5094457;28;20028;-65
2023/02/05 06:28:47;;;;;;;56.78;27.38;;;4.30;99.90;;;;;;5094587;28;20406;-65
2023/02/05 06:31:13;;;;;;;59.13;26.25;;;4.30;99.90;;;;;;5094304;28;20107;-65
2023/02/05 06:33:38;;;;;;;67.20;29.00;;;4.30;99.90;;;;;;5094503;28;20056;-65
2023/02/05 06:36:04;;;;;;;63.92;28.10;;;4.40;99.90;;;;;;5094423;28;20020;-65
2023/02/05 06:38:30;;;;;;;53.45;27.75;;;4.40;99.90;;;;;;5094376;28;20016;-65
2023/02/05 06:40:55;;;;;;;53.17;25.70;;;4.40;99.90;;;;;;5093853;28;20115;-65
2023/02/05 06:43:21;;;;;;;63.85;29.15;;;4.50;99.90;;;;;;5094157;28;20039;-65
2023/02/05 06:45:47;;;;;;;68.47;31.08;;;4.50;99.90;;;;;;5094011;28;20020;-65
2023/02/05 06:48:12;;;;;;;89.25;30.40;;;4.70;99.90;;;;;;5094058;28;20028;-65
2023/02/05 06:50:38;;;;;;;76.13;30.33;;;4.70;99.90;;;;;;5093045;28;20493;-65
2023/02/05 06:53:03;;;;;;;86.68;33.83;;;4.80;99.90;;;;;;5094102;28;20046;-65
2023/02/05 06:55:29;;;;;;;82.75;32.42;;;4.80;99.90;;;;;;5093947;28;20412;-65
2023/02/05 06:57:54;;;;;;;92.57;33.78;;;4.80;99.90;;;;;;5093852;28;20103;-65
2023/02/05 07:00:20;;;;;;;82.80;32.50;;;4.90;99.90;;;;;;5093797;28;20465;-65
2023/02/05 07:02:46;;;;;;;95.35;32.88;;;4.90;99.90;;;;;;5093797;28;20031;-65
2023/02/05 07:05:11;;;;;;;84.18;33.10;;;4.90;99.90;;;;;;5093700;28;20031;-65
2023/02/05 07:07:37;;;;;;;89.20;31.85;;;4.90;99.90;;;;;;5093660;28;20028;-65
2023/02/05 07:10:03;;;;;;;71.93;31.30;;;4.90;99.90;;;;;;5093850;28;20047;-65
2023/02/05 07:12:29;;;;;;;72.70;29.58;;;4.90;99.90;;;;;;5092626;28;20027;-65
2023/02/05 07:14:54;;;;;;;72.70;30.35;;;4.90;99.90;;;;;;5093533;28;20035;-65
2023/02/05 07:17:20;;;;;;;96.70;35.45;;;4.90;99.90;;;;;;5093705;28;20073;-65
2023/02/05 07:19:45;;;;;;;96.88;36.55;;;5.00;99.90;;;;;;5093655;28;20115;-65
2023/02/05 07:22:13;;;;;;;101.10;35.55;;;5.10;99.90;;;;;;5093479;28;20020;-65
2023/02/05 07:24:38;;;;;;;104.97;36.65;;;5.10;99.90;;;;;;5092494;28;20035;-65
2023/02/05 07:27:04;;;;;;;76.47;31.63;;;5.10;99.90;;;;;;5093466;28;20393;-65
2023/02/05 07:29:30;;;;;;;85.45;35.00;;;5.20;99.90;;;;;;5093410;28;20050;-65
2023/02/05 07:31:55;;;;;;;99.05;37.92;;;5.10;99.90;;;;;;5092276;28;20035;-65
2023/02/05 07:34:21;;;;;;;109.78;38.50;;;5.20;99.90;;;;;;5093486;28;20363;-65
2023/02/05 07:36:50;;;;;;;114.97;41.13;;;5.30;99.90;;;;;;5093212;28;20029;-65
2023/02/05 07:39:16;;;;;;;111.72;42.53;;;5.40;99.90;;;;;;5091767;28;20040;-65
2023/02/05 07:41:42;;;;;;;126.10;43.40;;;5.40;99.90;;;;;;5093285;28;20024;-65
2023/02/05 07:44:07;;;;;;;118.03;45.38;;;5.50;99.90;;;;;;5093399;28;20032;-65
2023/02/05 07:46:33;;;;;;;117.03;43.03;;;5.50;99.90;;;;;;5093186;28;20020;-65
2023/02/05 07:48:58;;;;;;;119.35;44.80;;;5.50;99.90;;;;;;5093376;28;20025;-65
2023/02/05 07:51:24;;;;;;;122.40;45.47;;;5.60;99.90;;;;;;5093300;28;20032;-65
2023/02/05 07:53:50;;;;;;;130.27;47.13;;;5.60;99.90;;;;;;5093316;28;20020;-65
2023/02/05 07:56:17;;;;;;;132.63;47.33;;;5.60;99.90;;;;;;5093114;28;20504;-65
2023/02/05 07:58:42;;;;;;;131.13;45.35;;;5.60;99.90;;;;;;5093286;28;20035;-65
2023/02/05 08:01:08;;;;;;;122.93;45.22;;;5.60;99.90;;;;;;5093108;28;20024;-65
2023/02/05 08:03:34;;;;;;;118.60;44.28;;;5.60;99.90;;;;;;5093044;28;20103;-65
2023/02/05 08:06:04;;;;;;;124.30;47.83;;;5.60;99.90;;;;;;5093110;28;20116;-65
2023/02/05 08:08:29;;;;;;;148.43;50.28;;;5.70;99.90;;;;;;5093098;28;20024;-65
2023/02/05 08:10:59;;;;;;;140.55;49.00;;;5.70;99.90;;;;;;5093293;28;20370;-65
2023/02/05 08:13:24;;;;;;;131.05;51.00;;;5.80;99.90;;;;;;5093336;28;20101;-65
2023/02/05 08:15:50;;;;;;;143.45;52.88;;;5.80;99.90;;;;;;5093176;28;20035;-65
2023/02/05 08:18:15;;;;;;;146.15;53.22;;;5.90;99.90;;;;;;5092866;28;20103;-65
2023/02/05 08:20:41;;;;;;;142.18;53.38;;;5.90;99.90;;;;;;5092830;28;20028;-65
2023/02/05 08:23:06;;;;;;;135.57;49.75;;;6.00;99.90;;;;;;5092873;28;20504;-65
2023/02/05 08:25:32;;;;;;;125.55;48.50;;;6.10;99.90;;;;;;5092960;28;20024;-64
2023/02/05 08:27:57;;;;;;;140.82;49.22;;;6.10;99.90;;;;;;5096725;28;20039;-64
2023/02/05 08:30:23;;;;;;;130.13;48.33;;;6.10;99.90;;;;;;5096899;28;20450;-64
2023/02/05 08:32:49;;;;;;;134.23;47.58;;;6.20;99.90;;;;;;5096573;28;20073;-64
2023/02/05 08:35:15;;;;;;;124.75;44.10;;;6.20;99.90;;;;;;5096578;28;20043;-64
2023/02/05 08:37:41;;;;;;;122.38;44.22;;;6.20;99.90;;;;;;5096305;28;20024;-64
2023/02/05 08:40:07;;;;;;;121.38;45.17;;;6.20;99.90;;;;;;5096237;28;20105;-64
2023/02/05 08:42:33;;;;;;;112.03;41.63;;;6.20;99.90;;;;;;5096503;28;20081;-64
2023/02/05 08:44:58;;;;;;;126.00;42.50;;;6.20;99.90;;;;;;5096544;28;20028;-64
2023/02/05 08:47:24;;;;;;;113.93;42.28;;;6.20;99.90;;;;;;5096432;28;20020;-64
2023/02/05 08:49:50;;;;;;;113.47;42.20;;;6.20;99.90;;;;;;5096176;28;20081;-64
2023/02/05 08:52:16;;;;;;;104.80;40.70;;;6.30;99.90;;;;;;5096406;28;20032;-64
2023/02/05 08:54:41;;;;;;;93.45;36.53;;;6.20;99.90;;;;;;5096188;28;20034;-64
2023/02/05 08:57:08;;;;;;;91.10;35.10;;;6.30;99.90;;;;;;5096174;28;20484;-64
2023/02/05 08:59:34;;;;;;;81.05;35.53;;;6.20;99.90;;;;;;5094882;28;20064;-64
2023/02/05 09:02:00;;;;;;;90.85;35.53;;;6.30;99.90;;;;;;5096307;28;20074;-64
2023/02/05 09:04:26;;;;;;;80.25;32.08;;;6.30;99.90;;;;;;5112268;27;20055;-65
2023/02/05 09:06:51;;;;;;;78.10;32.13;;;6.30;99.90;;;;;;5096012;28;20067;-64
2023/02/05 09:09:17;;;;;;;78.68;30.95;;;6.30;99.90;;;;;;5095906;28;20035;-64
2023/02/05 09:11:45;;;;;;;85.80;30.85;;;6.30;99.90;;;;;;5096093;28;20173;-64
2023/02/05 09:14:11;;;;;;;79.88;30.70;;;6.40;99.90;;;;;;5094505;28;20024;-64
2023/02/05 09:16:37;;;;;;;70.60;28.90;;;6.40;99.90;;;;;;5095987;28;20076;-64
2023/02/05 09:19:02;;;;;;;61.47;26.80;;;6.40;99.90;;;;;;5111459;28;20515;-64
2023/02/05 09:21:28;;;;;;;54.70;22.98;;;6.40;99.90;;;;;;5095777;28;20024;-64
2023/02/05 09:23:54;;;;;;;55.95;24.35;;;6.40;99.90;;;;;;5095776;28;20024;-64
2023/02/05 09:26:20;;;;;;;54.30;23.42;;;6.40;99.90;;;;;;5095563;28;20050;-64
2023/02/05 09:28:45;;;;;;;57.47;24.50;;;6.40;99.90;;;;;;5095512;28;20035;-63
2023/02/05 09:31:13;;;;;;;50.35;22.60;;;6.30;99.90;;;;;;5095510;28;20024;-64
2023/02/05 09:33:39;;;;;;;47.90;21.35;;;6.30;99.90;;;;;;5095470;28;20024;-63
2023/02/05 09:36:11;;;;;;;50.13;20.13;;;6.30;99.90;;;;;;5095387;28;20081;-63
2023/02/05 09:38:37;;;;;;;31.00;15.07;;;6.30;99.90;;;;;;5111547;27;20031;-64
2023/02/05 09:41:08;;;;;;;26.52;12.40;;;6.30;99.90;;;;;;5095253;28;20024;-63
2023/02/05 09:43:46;;;;;;;30.50;12.63;;;6.20;99.90;;;;;;5094326;28;20024;-63
2023/02/05 09:46:30;;;;;;;24.40;11.55;;;6.30;99.90;;;;;;5095158;28;20048;-63
2023/02/05 09:49:18;;;;;;;18.38;8.52;;;6.40;99.90;;;;;;5095234;28;20051;-63
2023/02/05 09:51:48;;;;;;;17.20;7.90;;;6.40;99.90;;;;;;5094996;28;20405;-63
2023/02/05 09:54:34;;;;;;;16.92;8.57;;;6.50;99.90;;;;;;5095215;28;20059;-63
2023/02/05 09:57:05;;;;;;;13.95;6.75;;;6.50;99.90;;;;;;5093758;28;20130;-64
2023/02/05 09:59:32;;;;;;;10.82;5.70;;;6.60;99.90;;;;;;5093814;28;20024;-63
2023/02/05 10:02:00;;;;;;;11.63;5.15;;;6.60;99.90;;;;;;5094807;28;20028;-64
2023/02/05 10:04:27;;;;;;;10.02;4.40;;;6.60;99.90;;;;;;5094907;28;20403;-63
2023/02/05 10:07:32;;;;;;;8.63;4.20;;;6.60;99.90;;;;;;5093785;28;20020;-63
2023/02/05 10:10:17;;;;;;;10.27;4.43;;;6.60;99.90;;;;;;5094656;28;20024;-64
2023/02/05 10:13:12;;;;;;;10.30;3.80;;;6.50;99.90;;;;;;5094476;28;20039;-63
2023/02/05 10:16:06;;;;;;;8.93;4.00;;;6.40;99.90;;;;;;5094584;28;20032;-63
2023/02/05 10:19:11;;;;;;;8.65;3.40;;;6.40;99.90;;;;;;5094807;28;20032;-63
2023/02/05 10:22:10;;;;;;;7.32;3.33;;;6.40;99.90;;;;;;5094455;28;20474;-63
2023/02/05 10:25:11;;;;;;;8.93;3.30;;;6.30;99.90;;;;;;5094360;28;20024;-63
2023/02/05 10:28:02;;;;;;;10.18;3.08;;;6.30;99.90;;;;;;5094497;28;20060;-63
2023/02/05 10:30:38;;;;;;;5.43;2.75;;;6.30;99.90;;;;;;5094355;28;20038;-63
2023/02/05 10:33:16;;;;;;;6.57;2.38;;;6.30;99.90;;;;;;5094361;28;20032;-63
2023/02/05 10:35:55;;;;;;;6.55;3.10;;;6.40;99.90;;;;;;5094446;28;20077;-63
2023/02/05 10:38:23;;;;;;;6.82;2.75;;;6.40;99.90;;;;;;5094218;28;20024;-63
2023/02/05 10:40:51;;;;;;;7.40;2.63;;;6.50;99.90;;;;;;5092793;28;20469;-63
2023/02/05 10:43:25;;;;;;;6.30;2.22;;;6.60;99.90;;;;;;5094115;28;20477;-63
2023/02/05 10:45:51;;;;;;;3.45;1.50;;;6.50;99.90;;;;;;5094066;28;20039;-63
2023/02/05 10:48:45;;;;;;;6.65;2.38;;;6.50;99.90;;;;;;5093715;28;20112;-63
2023/02/05 10:51:15;;;;;;;3.47;1.38;;;6.50;99.90;;;;;;5092767;28;20020;-63
2023/02/05 10:53:41;;;;;;;4.20;1.38;;;6.50;99.90;;;;;;5092839;28;20027;-63
2023/02/05 10:56:13;;;;;;;4.03;1.88;;;6.60;99.90;;;;;;5092694;28;20408;-63
2023/02/05 10:58:46;;;;;;;3.70;1.67;;;6.50;99.90;;;;;;5093898;28;20036;-63
2023/02/05 11:01:16;;;;;;;5.63;1.50;;;6.60;99.90;;;;;;5093802;28;20398;-63
2023/02/05 11:03:57;;;;;;;5.40;2.00;;;6.50;99.90;;;;;;5092591;28;20085;-63
2023/02/05 11:06:26;;;;;;;6.28;1.80;;;6.50;99.90;;;;;;5093876;28;20213;-63
2023/02/05 11:08:51;;;;;;;2.92;1.80;;;6.50;99.90;;;;;;5093936;28;20473;-63
2023/02/05 11:11:24;;;;;;;3.17;1.30;;;6.50;99.90;;;;;;5093763;28;20028;-63
2023/02/05 11:14:12;;;;;;;4.28;1.55;;;6.40;99.90;;;;;;5092451;28;20035;-63
2023/02/05 11:16:41;;;;;;;5.38;1.95;;;6.40;99.90;;;;;;5093445;28;20032;-63
2023/02/05 11:19:20;;;;;;;4.45;1.40;;;6.30;99.90;;;;;;5093507;28;20397;-64
2023/02/05 11:21:53;;;;;;;3.83;1.88;;;6.30;99.90;;;;;;5093483;28;20099;-63
2023/02/05 11:24:24;;;;;;;4.93;2.08;;;6.30;99.90;;;;;;5093487;28;20066;-64
2023/02/05 11:27:26;;;;;;;7.95;2.03;;;6.30;99.90;;;;;;5093648;28;20559;-64
2023/02/05 11:29:54;;;;;;;3.80;1.73;;;6.40;99.90;;;;;;5093667;28;20534;-64
2023/02/05 11:32:30;;;;;;;3.90;2.17;;;6.40;99.90;;;;;;5093632;28;20111;-63
2023/02/05 11:38:07;;;;;;;5.28;1.70;;;6.40;99.90;;;;;;5111164;27;20388;-64
2023/02/05 11:40:33;;;;;;;3.75;1.90;;;6.50;99.90;;;;;;5110155;28;20103;-64
2023/02/05 11:43:04;;;;;;;3.25;2.10;;;6.60;99.90;;;;;;5110994;28;20074;-65
2023/02/05 11:45:31;;;;;;;3.45;2.22;;;6.60;99.90;;;;;;5111019;28;20031;-64
2023/02/05 11:48:00;;;;;;;5.60;2.85;;;6.60;99.90;;;;;;5110050;28;20028;-64
2023/02/05 11:50:28;;;;;;;3.58;2.50;;;6.60;99.90;;;;;;5110948;28;20027;-64
2023/02/05 11:53:04;;;;;;;5.50;3.28;;;6.60;99.90;;;;;;5111140;28;20031;-64
2023/02/05 11:55:32;;;;;;;5.13;2.92;;;6.50;99.90;;;;;;5110928;28;20093;-64
2023/02/05 11:58:02;;;;;;;6.07;2.50;;;6.50;99.90;;;;;;5109849;28;20493;-64
2023/02/05 12:00:28;;;;;;;7.03;2.85;;;6.50;99.90;;;;;;5092814;28;20081;-64
2023/02/05 12:03:16;;;;;;;5.57;2.30;;;6.50;99.90;;;;;;5109557;28;20016;-64
2023/02/05 12:05:50;;;;;;;6.13;2.67;;;6.50;99.90;;;;;;5110530;28;20035;-64
2023/02/05 12:11:26;;;;;;;3.92;2.33;;;6.50;99.90;;;;;;5090783;28;20410;-63
2023/02/05 12:13:58;;;;;;;;;;;6.50;99.90;;;;;;5090026;28;20515;-63
2023/02/05 12:16:47;;;;;;;4.60;2.85;;;6.30;99.90;;;;;;5090788;28;19904;-63
2023/02/05 12:19:23;;;;;;;5.22;3.75;;;6.40;99.90;;;;;;5090585;28;20055;-63
2023/02/05 12:25:13;;;;;;;7.20;4.38;;;6.40;99.90;;;;;;5090806;28;20391;-64
2023/02/05 12:27:52;;;;;;;6.65;5.00;;;6.40;99.90;;;;;;5089706;28;20069;-63
2023/02/05 12:30:47;;;;;;;9.02;4.97;;;6.30;99.90;;;;;;5090655;28;20477;-63
2023/02/05 12:36:54;;;;;;;12.80;7.57;;;6.30;99.90;;;;;;5090686;28;20382;-63
2023/02/05 12:39:59;;;;;;;17.67;8.60;;;6.20;99.90;;;;;;5090561;28;20039;-63
2023/02/05 12:42:53;;;;;;;13.30;8.60;;;6.20;99.90;;;;;;5090572;28;20444;-64
2023/02/05 12:48:40;;;;;;;18.17;11.60;;;6.20;99.90;;;;;;5111162;27;20738;-64
2023/02/05 12:51:32;;;;;;;19.75;11.57;;;6.20;99.90;;;;;;5111274;28;20397;-64
2023/02/05 12:54:26;;;;;;;20.67;12.70;;;6.10;99.90;;;;;;5111078;28;20027;-63
2023/02/05 12:57:00;;;;;;;23.77;14.18;;;6.20;99.90;;;;;;5111002;28;20031;-64
2023/02/05 12:59:56;;;;;;;21.95;13.80;;;6.10;99.90;;;;;;5111067;28;20023;-64
2023/02/05 13:02:33;;;;;;;22.90;14.43;;;6.20;99.90;;;;;;5110711;28;20081;-63
2023/02/05 13:05:25;;;;;;;23.30;14.68;;;6.20;99.90;;;;;;5110869;28;20488;-63
2023/02/05 13:08:17;;;;;;;29.98;15.60;;;6.20;99.90;;;;;;5110656;28;20027;-63
2023/02/05 13:10:55;;;;;;;24.50;15.45;;;6.20;99.90;;;;;;5109848;28;20016;-63
2023/02/05 13:13:26;;;;;;;24.80;15.40;;;6.10;99.90;;;;;;5110646;28;20474;-63
2023/02/05 13:16:04;;;;;;;26.05;16.02;;;6.20;99.90;;;;;;5109418;28;20044;-64
2023/02/05 13:18:34;;;;;;;25.13;16.00;;;6.10;99.90;;;;;;5109352;28;20107;-64
2023/02/05 13:29:50;;;;;;;25.67;15.70;;;6.10;99.90;;;;;;5110085;28;20396;-64
2023/02/05 13:32:20;;;;;;;24.42;14.77;;;6.10;99.90;;;;;;5109286;28;20099;-64
2023/02/05 13:34:46;;;;;;;23.02;13.93;;;6.10;99.90;;;;;;5109345;28;20024;-64
2023/02/05 13:37:41;;;;;;;22.45;14.48;;;6.10;99.90;;;;;;5110086;28;20024;-64